Time;durP1;ratioP1;P1;durP2;ratioP2;P2;SDS_P1;SDS_P2;PMS_P1;PMS_P2;Temp;Humidity;BMP_temperature;BMP_pressure;BME280_temperature;BME280_humidity;BME280_pressure;Samples;Min_cycle;Max_cycle;Signal;HPM_P1;HPM_P2
2024/01/24 00:01:03;;;;;;;11.70;2.47;;;12.40;99.90;;;;;;4134090;28;20553;-73
2024/01/24 00:03:04;;;;;;;10.60;2.85;;;12.50;99.90;;;;;;4154165;28;20040;-74
2024/01/24 00:05:05;;;;;;;11.18;2.55;;;12.50;99.90;;;;;;4155075;28;20095;-74
2024/01/24 00:07:06;;;;;;;7.93;2.25;;;12.50;99.90;;;;;;4156555;28;20041;-74
2024/01/24 00:09:06;;;;;;;7.63;2.13;;;12.50;99.90;;;;;;4152170;28;20523;-74
2024/01/24 00:11:07;;;;;;;8.75;2.45;;;12.50;99.90;;;;;;4156179;28;20025;-74
2024/01/24 00:13:08;;;;;;;8.57;2.20;;;12.50;99.90;;;;;;4141015;28;20459;-74
2024/01/24 00:15:08;;;;;;;9.27;2.30;;;12.60;99.90;;;;;;4156087;28;20033;-74
2024/01/24 00:17:09;;;;;;;8.20;2.00;;;12.60;99.90;;;;;;4156164;28;20113;-73
2024/01/24 00:19:10;;;;;;;8.82;2.10;;;12.60;99.90;;;;;;4152856;28;20050;-73
2024/01/24 00:21:10;;;;;;;9.43;2.00;;;12.60;99.90;;;;;;4160800;28;20034;-73
2024/01/24 00:23:11;;;;;;;9.23;2.83;;;12.70;99.90;;;;;;4153375;28;20076;-74
2024/01/24 00:25:11;;;;;;;7.70;2.30;;;12.70;99.90;;;;;;4150341;28;20049;-74
2024/01/24 00:27:12;;;;;;;11.27;2.50;;;12.70;99.90;;;;;;4153704;28;20047;-74
2024/01/24 00:29:13;;;;;;;7.20;2.20;;;12.80;99.90;;;;;;4134186;28;20108;-74
2024/01/24 00:31:14;;;;;;;8.32;1.95;;;12.70;99.90;;;;;;4153660;28;20147;-74
2024/01/24 00:33:15;;;;;;;8.40;2.17;;;12.80;99.90;;;;;;4151372;28;20117;-74
2024/01/24 00:35:16;;;;;;;7.37;2.07;;;12.80;99.90;;;;;;4151247;28;20509;-74
2024/01/24 00:37:17;;;;;;;6.07;2.25;;;12.90;99.90;;;;;;4153612;28;20058;-74
2024/01/24 00:39:17;;;;;;;6.22;1.60;;;12.90;99.90;;;;;;4154900;28;20026;-75
2024/01/24 00:41:18;;;;;;;8.55;1.88;;;12.90;99.90;;;;;;4137839;28;20037;-74
2024/01/24 00:43:18;;;;;;;6.88;1.67;;;12.90;99.90;;;;;;4153300;28;20107;-74
2024/01/24 00:45:19;;;;;;;4.30;1.80;;;12.90;99.90;;;;;;4146381;28;20036;-74
2024/01/24 00:47:20;;;;;;;4.90;1.80;;;12.90;99.90;;;;;;4146666;28;20026;-74
2024/01/24 00:49:22;;;;;;;3.97;1.63;;;12.90;99.90;;;;;;4120962;28;20030;-74
2024/01/24 00:51:23;;;;;;;4.22;1.65;;;12.90;99.90;;;;;;4153358;28;20034;-73
2024/01/24 00:53:25;;;;;;;8.10;1.88;;;13.00;99.90;;;;;;4152467;28;20052;-73
2024/01/24 00:55:27;;;;;;;5.47;1.57;;;13.00;99.90;;;;;;4138223;28;20108;-74
2024/01/24 00:57:27;;;;;;;7.43;2.10;;;13.00;99.90;;;;;;4152583;28;20356;-74
2024/01/24 00:59:28;;;;;;;4.80;1.75;;;13.00;99.90;;;;;;4156996;28;20037;-73
2024/01/24 01:01:28;;;;;;;6.10;2.05;;;13.00;99.90;;;;;;4138207;28;20034;-73
2024/01/24 01:03:29;;;;;;;3.47;1.40;;;13.00;99.90;;;;;;4156414;28;20487;-74
2024/01/24 01:05:29;;;;;;;6.10;1.67;;;13.10;99.90;;;;;;4141124;28;20533;-73
2024/01/24 01:07:30;;;;;;;4.18;1.48;;;13.00;99.90;;;;;;4140747;28;20089;-74
2024/01/24 01:09:31;;;;;;;5.35;1.55;;;13.10;99.90;;;;;;4142496;28;20030;-74
2024/01/24 01:11:32;;;;;;;5.85;1.70;;;13.10;99.90;;;;;;4161001;28;20060;-78
2024/01/24 01:13:34;;;;;;;6.88;1.58;;;13.10;99.90;;;;;;4160920;28;20038;-78
2024/01/24 01:15:34;;;;;;;4.93;1.53;;;13.10;99.90;;;;;;4154375;28;20125;-77
2024/01/24 01:17:35;;;;;;;8.05;1.85;;;13.10;99.90;;;;;;4157061;28;20308;-77
2024/01/24 01:19:36;;;;;;;3.22;1.20;;;13.10;99.90;;;;;;4161020;28;20044;-77
2024/01/24 01:21:37;;;;;;;7.85;1.35;;;13.20;99.90;;;;;;4158539;28;20376;-74
2024/01/24 01:23:38;;;;;;;4.25;1.65;;;13.20;99.90;;;;;;4161516;28;20025;-73
2024/01/24 01:25:38;;;;;;;3.67;1.52;;;13.20;99.90;;;;;;4157122;28;20390;-73
2024/01/24 01:27:40;;;;;;;4.70;1.27;;;13.20;99.90;;;;;;4158379;28;20975;-74
2024/01/24 01:29:40;;;;;;;3.00;1.13;;;13.20;99.90;;;;;;4139016;28;20086;-74
2024/01/24 01:31:41;;;;;;;2.83;1.20;;;13.20;99.90;;;;;;4160110;28;20037;-73
2024/01/24 01:33:41;;;;;;;4.03;1.05;;;13.20;99.90;;;;;;4156872;28;20033;-73
2024/01/24 01:35:42;;;;;;;6.28;1.45;;;13.20;99.90;;;;;;4158834;28;20072;-74
2024/01/24 01:37:42;;;;;;;4.55;1.80;;;13.30;99.90;;;;;;4156875;28;20096;-74
2024/01/24 01:39:43;;;;;;;3.67;1.00;;;13.30;99.90;;;;;;4157784;28;20034;-73
2024/01/24 01:41:48;;;;;;;2.08;0.90;;;13.30;99.90;;;;;;4158341;28;20034;-75
2024/01/24 01:43:48;;;;;;;3.88;1.27;;;13.30;99.90;;;;;;4160681;28;20469;-74
2024/01/24 01:45:50;;;;;;;1.83;0.90;;;13.30;99.90;;;;;;4153943;28;20030;-75
2024/01/24 01:47:51;;;;;;;4.18;1.25;;;13.30;99.90;;;;;;4158818;28;20029;-74
2024/01/24 01:49:52;;;;;;;2.75;1.02;;;13.20;99.90;;;;;;4142718;28;20503;-73
2024/01/24 01:51:53;;;;;;;3.58;1.23;;;13.30;99.90;;;;;;4156499;28;20059;-74
2024/01/24 01:53:55;;;;;;;3.08;1.02;;;13.30;99.90;;;;;;4159102;28;20577;-74
2024/01/24 01:55:56;;;;;;;4.13;1.48;;;13.30;99.90;;;;;;4156670;28;20076;-74
2024/01/24 01:57:58;;;;;;;4.38;1.35;;;13.30;99.90;;;;;;4160707;28;20036;-73
2024/01/24 02:00:00;;;;;;;4.47;1.23;;;13.30;99.90;;;;;;4159704;28;20049;-74
2024/01/24 02:02:01;;;;;;;1.88;0.98;;;13.30;99.90;;;;;;4158376;28;20041;-73
2024/01/24 02:04:02;;;;;;;4.68;1.30;;;13.30;99.90;;;;;;4140799;28;20089;-74
2024/01/24 02:06:04;;;;;;;3.15;1.15;;;13.30;99.90;;;;;;4157828;28;20041;-74
2024/01/24 02:08:05;;;;;;;4.20;1.17;;;13.30;99.90;;;;;;4158905;28;20037;-74
2024/01/24 02:10:06;;;;;;;1.55;0.95;;;13.30;99.90;;;;;;4158111;28;20551;-74
2024/01/24 02:12:07;;;;;;;3.35;0.80;;;13.40;99.90;;;;;;4160172;28;20497;-73
2024/01/24 02:14:07;;;;;;;5.90;1.05;;;13.40;99.90;;;;;;4161372;28;20029;-74
2024/01/24 02:16:10;;;;;;;2.95;1.25;;;13.40;99.90;;;;;;4156212;28;20038;-73
2024/01/24 02:18:10;;;;;;;2.15;0.80;;;13.40;99.90;;;;;;4156602;28;20546;-74
2024/01/24 02:20:12;;;;;;;2.95;0.90;;;13.40;99.90;;;;;;4156926;28;20049;-74
2024/01/24 02:22:13;;;;;;;3.55;0.88;;;13.50;99.90;;;;;;4160734;28;20053;-76
2024/01/24 02:24:14;;;;;;;2.30;0.95;;;13.50;99.90;;;;;;4156451;28;20479;-73
2024/01/24 02:26:15;;;;;;;1.58;1.05;;;13.40;99.90;;;;;;4157304;28;20038;-76
2024/01/24 02:28:16;;;;;;;1.48;0.70;;;13.40;99.90;;;;;;4157456;28;20037;-74
2024/01/24 02:30:17;;;;;;;3.50;0.85;;;13.40;99.90;;;;;;4157121;28;20038;-74
2024/01/24 02:32:17;;;;;;;3.25;0.90;;;13.40;99.90;;;;;;4159324;28;20608;-74
2024/01/24 02:34:18;;;;;;;5.22;0.90;;;13.30;99.90;;;;;;4159409;28;20040;-74
2024/01/24 02:36:18;;;;;;;1.00;0.63;;;13.30;99.90;;;;;;4157311;28;20042;-74
2024/01/24 02:38:19;;;;;;;0.80;0.63;;;13.30;99.90;;;;;;4156863;28;20084;-77
2024/01/24 02:40:20;;;;;;;1.27;0.57;;;13.20;99.90;;;;;;4156615;28;20041;-74
2024/01/24 02:42:20;;;;;;;2.38;1.05;;;13.20;99.90;;;;;;4140279;28;20042;-74
2024/01/24 02:44:21;;;;;;;4.72;0.93;;;13.20;99.90;;;;;;4156705;28;20045;-74
2024/01/24 02:46:21;;;;;;;3.85;1.10;;;13.10;99.90;;;;;;4152569;28;20041;-75
2024/01/24 02:48:22;;;;;;;2.00;0.80;;;13.10;99.90;;;;;;4154475;28;20376;-74
2024/01/24 02:50:22;;;;;;;3.17;1.13;;;13.10;99.90;;;;;;4158371;28;20033;-74
2024/01/24 02:52:23;;;;;;;1.20;0.70;;;13.10;99.90;;;;;;4159010;28;20056;-74
2024/01/24 02:54:24;;;;;;;1.10;0.70;;;13.10;99.90;;;;;;4156725;28;20068;-74
2024/01/24 02:56:24;;;;;;;2.60;1.00;;;13.10;99.90;;;;;;4158236;28;20068;-74
2024/01/24 02:58:25;;;;;;;2.20;0.85;;;13.10;99.90;;;;;;4159117;28;20605;-74
2024/01/24 03:00:27;;;;;;;1.88;0.77;;;13.00;99.90;;;;;;4141708;28;20044;-74
2024/01/24 03:02:28;;;;;;;0.95;0.60;;;13.10;99.90;;;;;;4155609;28;20091;-75
2024/01/24 03:04:28;;;;;;;3.38;0.95;;;13.00;99.90;;;;;;4158720;28;20037;-75
2024/01/24 03:06:29;;;;;;;2.13;0.60;;;13.00;99.90;;;;;;4152379;28;20025;-74
2024/01/24 03:08:29;;;;;;;1.42;0.55;;;13.00;99.90;;;;;;4154071;28;20026;-74
2024/01/24 03:10:30;;;;;;;1.75;0.50;;;13.00;99.90;;;;;;4153747;28;20117;-75
2024/01/24 03:12:31;;;;;;;1.23;0.68;;;13.00;99.90;;;;;;4158843;28;20431;-74
2024/01/24 03:14:31;;;;;;;1.38;0.77;;;13.00;99.90;;;;;;4158545;28;20395;-75
2024/01/24 03:16:32;;;;;;;2.65;0.88;;;13.00;99.90;;;;;;4156085;28;20398;-75
2024/01/24 03:18:36;;;;;;;1.77;0.57;;;13.00;99.90;;;;;;4156930;28;20450;-75
2024/01/24 03:20:37;;;;;;;1.27;0.60;;;13.00;99.90;;;;;;4156801;28;20040;-74
2024/01/24 03:22:38;;;;;;;1.60;0.80;;;12.90;99.90;;;;;;4157046;28;20033;-74
2024/01/24 03:24:39;;;;;;;1.40;0.60;;;12.90;99.90;;;;;;4156141;28;20037;-74
2024/01/24 03:26:39;;;;;;;1.27;0.60;;;12.90;99.90;;;;;;4155743;28;20057;-74
2024/01/24 03:28:40;;;;;;;0.45;0.40;;;12.90;99.90;;;;;;4150153;28;20044;-75
2024/01/24 03:30:41;;;;;;;1.42;0.63;;;12.90;99.90;;;;;;4152220;28;20455;-73
2024/01/24 03:32:42;;;;;;;0.98;0.50;;;12.90;99.90;;;;;;4158227;28;20502;-74
2024/01/24 03:34:54;;;;;;;2.38;0.68;;;12.80;99.90;;;;;;4140239;28;20212;-74
2024/01/24 03:36:55;;;;;;;1.25;0.50;;;12.90;99.90;;;;;;4155341;28;20048;-74
2024/01/24 03:38:56;;;;;;;0.40;0.40;;;12.80;99.90;;;;;;4149647;28;20026;-74
2024/01/24 03:40:56;;;;;;;1.02;0.40;;;12.80;99.90;;;;;;4157332;28;20451;-74
2024/01/24 03:42:57;;;;;;;1.63;0.60;;;12.80;99.90;;;;;;4155971;28;20040;-74
2024/01/24 03:44:57;;;;;;;0.70;0.40;;;12.80;99.90;;;;;;4153944;28;20435;-76
2024/01/24 03:46:58;;;;;;;0.47;0.47;;;12.70;99.90;;;;;;4156332;28;20589;-75
2024/01/24 03:48:58;;;;;;;2.13;0.60;;;12.80;99.90;;;;;;4161252;28;21203;-75
2024/01/24 03:50:59;;;;;;;2.67;0.90;;;12.80;99.90;;;;;;4151525;28;20053;-75
2024/01/24 03:53:03;;;;;;;0.43;0.20;;;12.70;99.90;;;;;;4142240;28;20034;-75
2024/01/24 03:55:04;;;;;;;0.45;0.40;;;12.70;99.90;;;;;;4138118;28;20030;-76
2024/01/24 03:57:04;;;;;;;0.50;0.47;;;12.70;99.90;;;;;;4157214;28;20447;-74
2024/01/24 03:59:05;;;;;;;1.45;0.52;;;12.70;99.90;;;;;;4156983;28;20033;-74
2024/01/24 04:01:06;;;;;;;0.20;0.10;;;12.70;99.90;;;;;;4154026;28;20038;-75
2024/01/24 04:03:07;;;;;;;0.32;0.30;;;12.70;99.90;;;;;;4158106;28;20041;-75
2024/01/24 04:05:10;;;;;;;1.02;0.25;;;12.70;99.90;;;;;;4145092;28;20481;-75
2024/01/24 04:07:10;;;;;;;0.57;0.35;;;12.70;99.90;;;;;;4155486;28;20026;-75
2024/01/24 04:09:11;;;;;;;1.50;0.50;;;12.70;99.90;;;;;;4154173;28;20394;-75
2024/01/24 04:11:12;;;;;;;1.23;0.30;;;12.70;99.90;;;;;;4153955;28;20045;-75
2024/01/24 04:13:12;;;;;;;0.20;0.20;;;12.70;99.90;;;;;;4156462;28;20075;-74
2024/01/24 04:15:13;;;;;;;2.50;0.52;;;12.70;99.90;;;;;;4155775;28;20029;-76
2024/01/24 04:17:13;;;;;;;0.50;0.40;;;12.80;99.90;;;;;;4154210;28;20041;-76
2024/01/24 04:19:14;;;;;;;0.68;0.40;;;12.70;99.90;;;;;;4156872;28;20569;-74
2024/01/24 04:21:15;;;;;;;0.55;0.30;;;12.80;99.90;;;;;;4140581;28;20099;-74
2024/01/24 04:23:15;;;;;;;1.88;0.45;;;12.80;99.90;;;;;;4157738;28;20029;-74
2024/01/24 04:25:16;;;;;;;0.52;0.30;;;12.70;99.90;;;;;;4155637;28;20104;-75
2024/01/24 04:27:16;;;;;;;3.60;0.60;;;12.80;99.90;;;;;;4156213;28;20596;-75
2024/01/24 04:29:18;;;;;;;2.90;0.40;;;12.80;99.90;;;;;;4157883;28;20026;-75
2024/01/24 04:31:18;;;;;;;2.63;0.60;;;12.80;99.90;;;;;;4158148;28;20491;-74
2024/01/24 04:33:19;;;;;;;1.10;0.30;;;12.80;99.90;;;;;;4139853;28;20080;-74
2024/01/24 04:35:20;;;;;;;7.03;2.97;;;12.80;99.90;;;;;;4154320;28;20036;-75
2024/01/24 04:37:20;;;;;;;2.45;0.80;;;12.80;99.90;;;;;;4156835;28;20038;-75
2024/01/24 04:39:21;;;;;;;0.90;0.40;;;12.80;99.90;;;;;;4158396;28;20080;-75
2024/01/24 04:41:22;;;;;;;4.88;0.85;;;12.80;99.90;;;;;;4160542;28;20106;-74
2024/01/24 04:43:23;;;;;;;2.03;0.73;;;12.80;99.90;;;;;;4159891;28;20033;-75
2024/01/24 04:45:23;;;;;;;2.65;0.47;;;12.80;99.90;;;;;;4160562;28;20030;-75
2024/01/24 04:47:24;;;;;;;1.33;0.55;;;12.90;99.90;;;;;;4158758;28;20129;-74
2024/01/24 04:49:25;;;;;;;3.20;0.77;;;12.90;99.90;;;;;;4160601;28;20033;-74
2024/01/24 04:51:27;;;;;;;1.83;0.60;;;12.90;99.90;;;;;;4157707;28;20471;-75
2024/01/24 04:53:28;;;;;;;2.67;0.80;;;12.80;99.90;;;;;;4160656;28;20149;-75
2024/01/24 04:55:29;;;;;;;4.07;0.98;;;12.80;99.90;;;;;;4160016;28;20029;-74
2024/01/24 04:57:29;;;;;;;5.13;0.90;;;12.80;99.90;;;;;;4158548;28;20053;-74
2024/01/24 04:59:30;;;;;;;4.45;1.23;;;12.80;99.90;;;;;;4160541;28;20041;-72
2024/01/24 05:01:31;;;;;;;3.13;0.80;;;12.80;99.90;;;;;;4159754;28;20030;-72
2024/01/24 05:03:31;;;;;;;3.72;1.20;;;12.80;99.90;;;;;;4159601;28;20032;-72
2024/01/24 05:05:32;;;;;;;3.92;1.13;;;12.80;99.90;;;;;;4155421;28;20037;-72
2024/01/24 05:07:34;;;;;;;3.15;1.10;;;12.80;99.90;;;;;;4157667;28;20030;-72
2024/01/24 05:09:34;;;;;;;7.03;1.67;;;12.90;99.90;;;;;;4155216;28;20038;-73
2024/01/24 05:11:35;;;;;;;4.47;1.38;;;12.80;99.90;;;;;;4159655;28;20355;-74
2024/01/24 05:13:36;;;;;;;7.95;1.67;;;12.90;99.90;;;;;;4159979;28;20045;-73
2024/01/24 05:15:37;;;;;;;5.13;1.45;;;12.80;99.90;;;;;;4142222;28;20038;-72
2024/01/24 05:17:39;;;;;;;6.13;1.92;;;12.80;99.90;;;;;;4157321;28;20041;-75
2024/01/24 05:19:39;;;;;;;12.98;2.30;;;12.80;99.90;;;;;;4159255;28;20511;-74
2024/01/24 05:21:44;;;;;;;8.73;1.90;;;12.80;99.90;;;;;;4140472;28;20044;-72
2024/01/24 05:23:44;;;;;;;9.63;2.42;;;12.80;99.90;;;;;;4143123;28;20116;-75
2024/01/24 05:25:45;;;;;;;8.52;2.10;;;12.70;99.90;;;;;;4156424;28;20409;-75
2024/01/24 05:27:46;;;;;;;15.88;2.85;;;12.70;99.90;;;;;;4157322;28;20507;-75
2024/01/24 05:29:47;;;;;;;11.68;2.63;;;12.70;99.90;;;;;;4156519;28;20029;-74
2024/01/24 05:31:47;;;;;;;7.65;2.40;;;12.70;99.90;;;;;;4154917;28;20064;-75
2024/01/24 05:33:48;;;;;;;12.93;2.90;;;12.60;99.90;;;;;;4158572;28;20091;-76
2024/01/24 05:35:49;;;;;;;12.50;2.70;;;12.60;99.90;;;;;;4155614;28;20064;-76
2024/01/24 05:37:49;;;;;;;11.80;3.08;;;12.60;99.90;;;;;;4157811;28;20372;-75
2024/01/24 05:39:50;;;;;;;16.08;3.25;;;12.60;99.90;;;;;;4160149;28;20091;-76
2024/01/24 05:41:51;;;;;;;12.65;2.67;;;12.60;99.90;;;;;;4159630;28;20541;-76
2024/01/24 05:43:51;;;;;;;17.38;3.17;;;12.60;99.90;;;;;;4142859;28;20450;-76
2024/01/24 05:45:52;;;;;;;14.60;3.13;;;12.60;99.90;;;;;;4155115;28;20030;-76
2024/01/24 05:47:52;;;;;;;13.85;2.67;;;12.60;99.90;;;;;;4156238;28;20041;-76
2024/01/24 05:49:53;;;;;;;10.20;2.60;;;12.60;99.90;;;;;;4139026;28;20069;-75
2024/01/24 05:51:54;;;;;;;18.73;3.60;;;12.60;99.90;;;;;;4155979;28;20442;-75
2024/01/24 05:53:54;;;;;;;7.50;2.50;;;12.60;99.90;;;;;;4159493;28;20041;-75
2024/01/24 05:55:55;;;;;;;13.70;3.80;;;12.60;99.90;;;;;;4152138;28;20041;-75
2024/01/24 05:57:56;;;;;;;17.67;3.78;;;12.60;99.90;;;;;;4157706;28;20083;-75
2024/01/24 05:59:56;;;;;;;12.70;2.92;;;12.60;99.90;;;;;;4155598;28;20050;-75
2024/01/24 06:01:57;;;;;;;14.25;3.20;;;12.70;99.90;;;;;;4157556;28;20042;-78
2024/01/24 06:03:57;;;;;;;17.58;3.67;;;12.60;99.90;;;;;;4153181;28;20117;-77
2024/01/24 06:05:58;;;;;;;12.70;2.80;;;12.60;99.90;;;;;;4151689;28;20096;-78
2024/01/24 06:07:59;;;;;;;15.70;3.38;;;12.60;99.90;;;;;;4150593;28;20029;-77
2024/01/24 06:10:00;;;;;;;16.38;3.95;;;12.60;99.90;;;;;;4159420;28;20486;-78
2024/01/24 06:12:01;;;;;;;14.65;3.20;;;12.60;99.90;;;;;;4151559;28;20038;-78
2024/01/24 06:14:01;;;;;;;15.82;3.58;;;12.50;99.90;;;;;;4159767;28;20041;-79
2024/01/24 06:16:02;;;;;;;16.67;3.78;;;12.60;99.90;;;;;;4153661;28;20041;-77
2024/01/24 06:18:03;;;;;;;17.20;3.38;;;12.50;99.90;;;;;;4146878;28;20125;-79
2024/01/24 06:20:04;;;;;;;17.55;3.85;;;12.60;99.90;;;;;;4153988;28;20045;-78
2024/01/24 06:22:05;;;;;;;20.10;3.70;;;12.60;99.90;;;;;;4151495;28;20037;-78
2024/01/24 06:24:06;;;;;;;18.58;3.97;;;12.60;99.90;;;;;;4153188;28;20044;-78
2024/01/24 06:26:07;;;;;;;14.27;3.50;;;12.50;99.90;;;;;;4139305;28;20049;-79
2024/01/24 06:28:08;;;;;;;16.98;3.50;;;12.50;99.90;;;;;;4138745;28;20144;-79
2024/01/24 06:30:10;;;;;;;16.38;4.05;;;12.50;99.90;;;;;;4153117;28;20046;-78
2024/01/24 06:32:12;;;;;;;16.60;3.55;;;12.50;99.90;;;;;;4158827;28;20041;-79
2024/01/24 06:34:12;;;;;;;17.40;3.67;;;12.50;99.90;;;;;;4139565;28;20026;-79
2024/01/24 06:36:13;;;;;;;17.52;3.90;;;12.50;99.90;;;;;;4137443;28;20649;-78
2024/01/24 06:38:14;;;;;;;12.43;3.20;;;12.50;99.90;;;;;;4156460;28;20037;-79
2024/01/24 06:40:15;;;;;;;17.17;3.83;;;12.50;99.90;;;;;;4159189;28;20029;-79
2024/01/24 06:42:16;;;;;;;18.25;4.30;;;12.50;99.90;;;;;;4156751;28;20445;-79
2024/01/24 06:44:16;;;;;;;17.30;4.03;;;12.50;99.90;;;;;;4160197;28;20487;-79
2024/01/24 06:46:17;;;;;;;19.38;4.88;;;12.50;99.90;;;;;;4155830;28;20522;-79
2024/01/24 06:48:18;;;;;;;14.70;3.95;;;12.50;99.90;;;;;;4135895;28;20084;-79
2024/01/24 06:50:18;;;;;;;15.90;4.18;;;12.50;99.90;;;;;;4140190;28;20447;-76
2024/01/24 06:52:19;;;;;;;12.50;3.70;;;12.40;99.90;;;;;;4134763;28;20042;-77
2024/01/24 06:54:20;;;;;;;23.15;4.15;;;12.50;99.90;;;;;;4143362;28;20057;-78
2024/01/24 06:56:21;;;;;;;15.93;3.83;;;12.50;99.90;;;;;;4137737;28;20066;-78
2024/01/24 06:58:23;;;;;;;17.10;4.13;;;12.40;99.90;;;;;;4138938;28;20133;-80
2024/01/24 07:00:24;;;;;;;20.15;4.68;;;12.40;99.90;;;;;;4137001;28;20169;-80
2024/01/24 07:02:24;;;;;;;21.60;5.07;;;12.40;99.90;;;;;;4139415;28;20041;-77
2024/01/24 07:04:25;;;;;;;16.48;3.88;;;12.40;99.90;;;;;;4141388;28;20503;-77
2024/01/24 07:06:26;;;;;;;18.10;4.20;;;12.40;99.90;;;;;;4137204;28;20038;-78
2024/01/24 07:08:27;;;;;;;25.75;5.10;;;12.40;99.90;;;;;;4138135;28;20388;-77
2024/01/24 07:10:27;;;;;;;21.27;5.10;;;12.40;99.90;;;;;;4136691;28;21741;-76
2024/01/24 07:12:28;;;;;;;22.10;5.10;;;12.40;99.90;;;;;;4137000;28;20064;-77
2024/01/24 07:14:29;;;;;;;23.27;4.95;;;12.40;99.90;;;;;;4137618;28;20373;-77
2024/01/24 07:16:29;;;;;;;20.15;5.00;;;12.30;99.90;;;;;;4137147;28;20045;-76
2024/01/24 07:18:33;;;;;;;21.73;5.13;;;12.40;99.90;;;;;;4150260;28;20034;-76
2024/01/24 07:20:34;;;;;;;21.80;5.30;;;12.30;99.90;;;;;;4139231;28;20038;-77
2024/01/24 07:22:34;;;;;;;28.85;5.70;;;12.30;99.90;;;;;;4138897;28;20053;-75
2024/01/24 07:24:35;;;;;;;19.40;4.55;;;12.20;99.90;;;;;;4138972;28;20041;-74
2024/01/24 07:26:36;;;;;;;23.88;5.10;;;12.20;99.90;;;;;;4139900;28;20026;-74
2024/01/24 07:28:36;;;;;;;27.42;5.00;;;12.10;99.90;;;;;;4141481;28;20119;-74
2024/01/24 07:30:37;;;;;;;25.00;4.88;;;12.10;99.90;;;;;;4140198;28;20048;-74
2024/01/24 07:32:40;;;;;;;18.40;4.90;;;12.10;99.90;;;;;;4142797;28;20033;-75
2024/01/24 07:34:41;;;;;;;23.60;5.22;;;12.10;99.90;;;;;;4138373;28;20042;-74
2024/01/24 07:36:42;;;;;;;23.17;5.20;;;12.00;99.90;;;;;;4137863;28;20034;-75
2024/01/24 07:38:42;;;;;;;24.95;6.03;;;11.90;99.90;;;;;;4137606;28;20041;-74
2024/01/24 07:40:43;;;;;;;31.75;6.63;;;11.90;99.90;;;;;;4155303;28;20478;-75
2024/01/24 07:42:44;;;;;;;29.70;6.43;;;11.80;99.90;;;;;;4138229;28;20570;-74
2024/01/24 07:44:44;;;;;;;29.85;6.38;;;11.90;99.90;;;;;;4157707;28;20049;-74
2024/01/24 07:46:45;;;;;;;25.33;5.05;;;11.80;99.90;;;;;;4134676;28;20057;-76
2024/01/24 07:48:45;;;;;;;36.70;5.80;;;11.80;99.90;;;;;;4138982;28;20459;-75
2024/01/24 07:50:46;;;;;;;39.03;6.50;;;11.80;99.90;;;;;;4143316;28;20044;-75
2024/01/24 07:52:46;;;;;;;24.88;5.68;;;11.80;99.90;;;;;;4156442;28;20053;-74
2024/01/24 07:54:47;;;;;;;38.50;6.78;;;11.80;99.90;;;;;;4157566;28;20033;-75
2024/01/24 07:56:48;;;;;;;26.48;6.07;;;11.90;99.90;;;;;;4157586;28;20083;-74
2024/01/24 07:58:48;;;;;;;31.55;5.82;;;11.80;99.90;;;;;;4156537;28;20479;-75
2024/01/24 08:00:49;;;;;;;29.55;5.95;;;11.80;99.90;;;;;;4154769;28;20526;-74
2024/01/24 08:02:49;;;;;;;24.75;4.60;;;11.80;99.90;;;;;;4158359;28;20719;-77
2024/01/24 08:04:50;;;;;;;25.75;5.55;;;11.80;99.90;;;;;;4133272;28;20049;-75
2024/01/24 08:06:50;;;;;;;18.63;5.13;;;11.80;99.90;;;;;;4151920;28;20184;-74
2024/01/24 08:08:51;;;;;;;24.25;5.30;;;11.80;99.90;;;;;;4157879;28;20033;-74
2024/01/24 08:10:52;;;;;;;32.45;6.30;;;11.80;99.90;;;;;;4158052;28;20057;-75
2024/01/24 08:12:53;;;;;;;32.25;6.63;;;11.80;99.90;;;;;;4155864;28;20030;-76
2024/01/24 08:14:53;;;;;;;25.50;6.15;;;11.80;99.90;;;;;;4159280;28;20598;-77
2024/01/24 08:17:05;;;;;;;26.45;5.88;;;11.80;99.90;;;;;;4158969;28;20044;-76
2024/01/24 08:19:06;;;;;;;30.20;6.72;;;11.80;99.90;;;;;;4156864;28;20045;-76
2024/01/24 08:21:06;;;;;;;29.20;6.60;;;11.80;99.90;;;;;;4141995;28;20073;-76
2024/01/24 08:23:07;;;;;;;29.65;5.57;;;11.80;99.90;;;;;;4161778;28;20053;-76
2024/01/24 08:25:08;;;;;;;30.45;5.90;;;11.80;99.90;;;;;;4157956;28;20111;-76
2024/01/24 08:27:08;;;;;;;22.85;4.82;;;11.90;99.90;;;;;;4162344;28;20419;-77
2024/01/24 08:29:09;;;;;;;27.48;5.15;;;11.90;99.90;;;;;;4160717;28;20418;-76
2024/01/24 08:31:10;;;;;;;27.65;6.10;;;11.90;99.90;;;;;;4155392;28;20579;-76
2024/01/24 08:33:11;;;;;;;32.28;5.93;;;11.90;99.90;;;;;;4161810;28;20037;-76
2024/01/24 08:35:12;;;;;;;26.48;5.75;;;11.90;99.90;;;;;;4159014;28;20703;-76
2024/01/24 08:37:13;;;;;;;30.00;5.75;;;12.00;99.90;;;;;;4157551;28;20060;-76
2024/01/24 08:39:14;;;;;;;22.00;5.05;;;11.90;99.90;;;;;;4156409;28;20038;-76
2024/01/24 08:41:15;;;;;;;31.05;6.40;;;12.00;99.90;;;;;;4138944;28;20037;-76
2024/01/24 08:43:15;;;;;;;25.00;5.55;;;12.00;99.90;;;;;;4158217;28;20148;-75
2024/01/24 08:45:16;;;;;;;26.70;6.68;;;11.90;99.90;;;;;;4157799;28;20026;-74
2024/01/24 08:47:17;;;;;;;25.83;5.78;;;11.90;99.90;;;;;;4160055;28;20522;-74
2024/01/24 08:49:17;;;;;;;28.25;5.35;;;11.90;99.90;;;;;;4142907;28;20026;-74
2024/01/24 08:51:18;;;;;;;32.13;6.75;;;11.90;99.90;;;;;;4156562;28;20048;-74
2024/01/24 08:53:18;;;;;;;23.20;5.20;;;11.90;99.90;;;;;;4160543;28;20122;-74
2024/01/24 08:55:19;;;;;;;33.47;6.20;;;11.90;99.90;;;;;;4156693;28;20044;-74
2024/01/24 08:57:20;;;;;;;23.15;5.75;;;11.90;99.90;;;;;;4156692;28;20500;-75
2024/01/24 08:59:20;;;;;;;32.30;7.40;;;11.80;99.90;;;;;;4161191;28;20022;-76
2024/01/24 09:01:21;;;;;;;34.88;7.43;;;11.80;99.90;;;;;;4138888;28;20409;-75
2024/01/24 09:03:22;;;;;;;28.27;5.90;;;11.80;99.90;;;;;;4156595;28;20391;-75
2024/01/24 09:05:22;;;;;;;34.45;6.93;;;11.80;99.90;;;;;;4158712;28;20033;-78
2024/01/24 09:07:23;;;;;;;31.25;6.53;;;11.90;99.90;;;;;;4160745;28;20407;-78
2024/01/24 09:09:25;;;;;;;31.00;6.13;;;11.90;99.90;;;;;;4160934;28;20072;-76
2024/01/24 09:11:25;;;;;;;28.00;5.83;;;11.90;99.90;;;;;;4157367;28;20033;-78
2024/01/24 09:13:26;;;;;;;33.17;6.97;;;11.90;99.90;;;;;;4155776;28;20106;-78
2024/01/24 09:15:26;;;;;;;24.83;6.15;;;11.80;99.90;;;;;;4152838;28;20040;-78
2024/01/24 09:17:27;;;;;;;24.58;5.72;;;11.80;99.90;;;;;;4160719;28;20041;-76
2024/01/24 09:19:28;;;;;;;32.75;6.45;;;11.80;99.90;;;;;;4156049;28;20025;-77
2024/01/24 09:21:28;;;;;;;24.60;4.88;;;11.90;99.90;;;;;;4156085;28;20045;-77
2024/01/24 09:23:29;;;;;;;27.88;6.55;;;11.80;99.90;;;;;;4158876;28;20040;-74
2024/01/24 09:25:30;;;;;;;23.70;5.43;;;11.80;99.90;;;;;;4156814;28;20033;-74
2024/01/24 09:27:31;;;;;;;29.35;6.47;;;11.80;99.90;;;;;;4157199;28;20040;-74
2024/01/24 09:29:32;;;;;;;30.13;7.13;;;11.80;99.90;;;;;;4156513;28;20061;-74
2024/01/24 09:31:33;;;;;;;25.73;5.93;;;11.80;99.90;;;;;;4135892;28;20057;-75
2024/01/24 09:33:33;;;;;;;34.08;6.97;;;11.80;99.90;;;;;;4157000;28;20095;-74
2024/01/24 09:35:34;;;;;;;29.92;6.75;;;11.80;99.90;;;;;;4158022;28;20045;-74
2024/01/24 09:37:34;;;;;;;28.30;5.53;;;11.90;99.90;;;;;;4155859;28;20041;-74
2024/01/24 09:39:35;;;;;;;31.33;6.00;;;11.90;99.90;;;;;;4156257;28;20045;-75
2024/01/24 09:41:42;;;;;;;25.13;5.95;;;11.90;99.90;;;;;;4152685;28;20116;-75
2024/01/24 09:43:45;;;;;;;33.08;6.45;;;11.90;99.90;;;;;;4159417;28;20029;-74
2024/01/24 09:45:49;;;;;;;36.78;7.30;;;11.90;99.90;;;;;;4152450;28;20034;-75
2024/01/24 09:47:51;;;;;;;28.30;7.55;;;11.90;99.90;;;;;;4151809;28;20026;-74
2024/01/24 09:49:52;;;;;;;20.63;5.63;;;11.90;99.90;;;;;;4154171;28;20063;-75
2024/01/24 09:51:53;;;;;;;33.33;6.88;;;11.90;99.90;;;;;;4162396;28;20526;-74
2024/01/24 09:53:56;;;;;;;30.85;6.55;;;11.90;99.90;;;;;;4157836;28;20049;-74
2024/01/24 09:55:57;;;;;;;29.25;6.72;;;11.90;99.90;;;;;;4155451;28;20128;-74
2024/01/24 09:57:58;;;;;;;29.73;6.32;;;11.90;99.90;;;;;;4158064;28;20040;-74
2024/01/24 09:59:59;;;;;;;29.60;6.05;;;11.90;99.90;;;;;;4160479;28;20510;-74
2024/01/24 10:02:00;;;;;;;27.33;5.63;;;12.00;99.90;;;;;;4156141;28;20128;-74
2024/01/24 10:04:01;;;;;;;30.23;6.57;;;12.00;99.90;;;;;;4157436;28;20372;-74
2024/01/24 10:06:03;;;;;;;23.80;5.68;;;12.00;99.90;;;;;;4155582;28;20034;-74
2024/01/24 10:08:05;;;;;;;31.52;6.63;;;11.90;99.90;;;;;;4155850;28;20046;-74
2024/01/24 10:10:07;;;;;;;30.02;6.63;;;11.90;99.90;;;;;;4157355;28;20048;-74
2024/01/24 10:12:09;;;;;;;33.20;6.85;;;11.90;99.90;;;;;;4160833;28;20368;-74
2024/01/24 10:14:11;;;;;;;22.85;6.30;;;11.90;99.90;;;;;;4157613;28;20033;-74
2024/01/24 10:16:12;;;;;;;24.33;5.88;;;11.90;99.90;;;;;;4141238;28;20045;-74
2024/01/24 10:18:13;;;;;;;28.75;6.60;;;11.90;99.90;;;;;;4159087;28;20029;-74
2024/01/24 10:20:13;;;;;;;25.75;6.20;;;11.90;99.90;;;;;;4157096;28;20026;-75
2024/01/24 10:22:14;;;;;;;26.95;5.97;;;11.90;99.90;;;;;;4137261;28;20456;-74
2024/01/24 10:24:15;;;;;;;29.08;6.43;;;11.90;99.90;;;;;;4156483;28;20762;-74
2024/01/24 10:26:16;;;;;;;35.15;6.45;;;11.90;99.90;;;;;;4137414;28;20511;-74